Time;durP1;ratioP1;P1;durP2;ratioP2;P2;SDS_P1;SDS_P2;PMS_P1;PMS_P2;Temp;Humidity;BMP_temperature;BMP_pressure;BME280_temperature;BME280_humidity;BME280_pressure;Samples;Min_cycle;Max_cycle;Signal;HPM_P1;HPM_P2
2022/05/09 00:01:40;;;;;;;18.27;3.60;;;10.20;99.90;;;;;;5046472;28;20049;-58
2022/05/09 00:04:07;;;;;;;10.23;2.90;;;10.20;99.90;;;;;;5045611;28;20056;-58
2022/05/09 00:06:35;;;;;;;12.73;4.00;;;10.20;99.90;;;;;;5046956;28;20049;-57
2022/05/09 00:09:02;;;;;;;15.18;3.80;;;10.20;99.90;;;;;;5045916;28;20085;-59
2022/05/09 00:11:29;;;;;;;8.98;3.47;;;10.20;99.90;;;;;;5046577;28;20136;-57
2022/05/09 00:13:56;;;;;;;10.05;4.70;;;10.10;99.90;;;;;;5045992;28;20127;-58
2022/05/09 00:16:22;;;;;;;8.27;3.28;;;10.00;99.90;;;;;;5039441;28;20519;-59
2022/05/09 00:18:50;;;;;;;18.83;3.95;;;10.00;99.90;;;;;;5046203;28;20037;-58
2022/05/09 00:21:16;;;;;;;11.90;3.55;;;9.90;99.90;;;;;;5046414;28;20052;-60
2022/05/09 00:23:43;;;;;;;12.73;4.53;;;9.80;99.90;;;;;;5046052;28;20411;-60
2022/05/09 00:26:10;;;;;;;13.13;5.10;;;9.80;99.90;;;;;;5045863;28;20092;-57
2022/05/09 00:28:37;;;;;;;13.95;4.18;;;9.80;99.90;;;;;;5043028;28;20090;-57
2022/05/09 00:31:04;;;;;;;14.55;5.22;;;9.80;99.90;;;;;;5049733;28;20052;-55
2022/05/09 00:33:31;;;;;;;15.45;5.43;;;9.80;99.90;;;;;;5045430;28;20052;-58
2022/05/09 00:35:58;;;;;;;12.15;3.65;;;9.90;99.90;;;;;;5049975;28;20131;-63
2022/05/09 00:38:26;;;;;;;14.40;4.55;;;9.80;99.90;;;;;;5049642;28;20175;-58
2022/05/09 00:43:38;;;;;;;12.65;4.63;;;9.80;99.90;;;;;;5048942;28;20057;-58
2022/05/09 00:46:05;;;;;;;13.68;4.15;;;9.80;99.90;;;;;;5048620;28;20091;-58
2022/05/09 00:48:32;;;;;;;5.68;3.97;;;9.80;99.90;;;;;;5049758;28;20055;-59
2022/05/09 00:50:59;;;;;;;15.07;4.50;;;9.70;99.90;;;;;;5049599;28;20132;-58
2022/05/09 00:53:26;;;;;;;12.73;4.82;;;9.70;99.90;;;;;;5031599;28;20595;-57
2022/05/09 00:55:54;;;;;;;13.13;4.40;;;9.60;99.90;;;;;;5046144;28;20073;-57
2022/05/09 00:58:28;;;;;;;6.82;4.72;;;9.60;99.90;;;;;;4689430;28;10000644;-55
2022/05/09 01:00:55;;;;;;;17.05;5.28;;;9.60;99.90;;;;;;5046729;28;20450;-57
2022/05/09 01:03:29;;;;;;;11.02;4.60;;;9.60;99.90;;;;;;5048341;28;20523;-55
2022/05/09 01:05:56;;;;;;;10.82;4.47;;;9.60;99.90;;;;;;5047927;28;20084;-57
2022/05/09 01:08:23;;;;;;;15.95;4.88;;;9.50;99.90;;;;;;5049496;28;20152;-55
2022/05/09 01:10:50;;;;;;;10.52;4.50;;;9.50;99.90;;;;;;5047388;28;20076;-56
2022/05/09 01:13:19;;;;;;;18.13;4.63;;;9.50;99.90;;;;;;5048908;28;20065;-57
2022/05/09 01:15:48;;;;;;;14.38;4.07;;;9.50;99.90;;;;;;5047741;28;20114;-57
2022/05/09 01:18:16;;;;;;;12.40;4.28;;;9.40;99.90;;;;;;5031784;28;20045;-58
2022/05/09 01:20:43;;;;;;;14.35;5.45;;;9.40;99.90;;;;;;5047354;28;20103;-58
2022/05/09 01:23:11;;;;;;;14.32;5.18;;;9.40;99.90;;;;;;5049010;28;20089;-58
2022/05/09 01:25:38;;;;;;;12.10;3.75;;;9.40;99.90;;;;;;5045570;28;20140;-58
2022/05/09 01:28:05;;;;;;;18.80;4.25;;;9.40;99.90;;;;;;5047676;28;20044;-62
2022/05/09 01:30:50;;;;;;;18.85;4.53;;;9.40;99.90;;;;;;5047470;28;20089;-58
2022/05/09 01:33:23;;;;;;;11.68;4.05;;;9.40;99.90;;;;;;5046818;28;20799;-56
2022/05/09 01:35:53;;;;;;;11.80;4.30;;;9.30;99.90;;;;;;5031549;28;20076;-57
2022/05/09 01:38:26;;;;;;;14.75;4.80;;;9.30;99.90;;;;;;5047495;28;20056;-56
2022/05/09 01:40:56;;;;;;;16.65;4.97;;;9.30;99.90;;;;;;5048759;28;20137;-57
2022/05/09 01:43:39;;;;;;;12.93;3.92;;;9.30;99.90;;;;;;5048272;28;20456;-56
2022/05/09 01:46:08;;;;;;;9.70;4.68;;;9.30;99.90;;;;;;5043947;28;20083;-57
2022/05/09 01:51:20;;;;;;;14.00;4.43;;;9.20;99.90;;;;;;5048750;28;20049;-56
2022/05/09 01:53:52;;;;;;;12.20;4.03;;;9.20;99.90;;;;;;5046238;28;20040;-56
2022/05/09 01:56:23;;;;;;;10.95;4.68;;;9.20;99.90;;;;;;5047708;28;20057;-57
2022/05/09 01:58:50;;;;;;;15.20;5.47;;;9.20;99.90;;;;;;5046464;28;20090;-56
2022/05/09 02:01:18;;;;;;;12.40;4.80;;;9.20;99.90;;;;;;5046801;28;20045;-58
2022/05/09 02:03:46;;;;;;;20.15;4.38;;;9.10;99.90;;;;;;5047269;28;20041;-58
2022/05/09 02:06:14;;;;;;;15.93;3.95;;;9.10;99.90;;;;;;5041651;28;20056;-59
2022/05/09 02:08:41;;;;;;;14.02;4.68;;;8.90;99.90;;;;;;5047019;28;20073;-57
2022/05/09 02:11:08;;;;;;;14.07;3.78;;;8.90;99.90;;;;;;5048190;28;20132;-59
2022/05/09 02:13:34;;;;;;;10.60;4.78;;;9.00;99.90;;;;;;5048187;28;20127;-58
2022/05/09 02:16:01;;;;;;;8.73;4.07;;;8.90;99.90;;;;;;5048599;28;20052;-57
2022/05/09 02:18:28;;;;;;;16.10;6.70;;;8.90;99.90;;;;;;5047697;28;20045;-58
2022/05/09 02:20:55;;;;;;;13.07;4.72;;;8.90;99.90;;;;;;5047745;28;20139;-57
2022/05/09 02:23:22;;;;;;;11.27;4.65;;;8.90;99.90;;;;;;5047499;28;20037;-58
2022/05/09 02:25:48;;;;;;;13.38;4.22;;;8.90;99.90;;;;;;5047971;28;20147;-58
2022/05/09 02:28:15;;;;;;;16.95;4.45;;;8.90;99.90;;;;;;5047418;28;20767;-61
2022/05/09 02:30:42;;;;;;;11.00;4.25;;;8.90;99.90;;;;;;5047902;28;20103;-57
2022/05/09 02:33:10;;;;;;;9.25;4.22;;;8.90;99.90;;;;;;5046702;28;20673;-57
2022/05/09 02:35:37;;;;;;;15.13;4.43;;;8.80;99.90;;;;;;5048116;28;20124;-57
2022/05/09 02:38:04;;;;;;;10.82;4.03;;;8.90;99.90;;;;;;5047821;28;20096;-56
2022/05/09 02:40:33;;;;;;;12.38;4.03;;;8.80;99.90;;;;;;5047401;28;20041;-58
2022/05/09 02:43:00;;;;;;;14.57;4.45;;;8.70;99.90;;;;;;5047726;28;20124;-59
2022/05/09 02:45:26;;;;;;;9.52;3.47;;;8.70;99.90;;;;;;5046123;28;20047;-52
2022/05/09 02:47:54;;;;;;;10.23;4.00;;;8.60;99.90;;;;;;5046754;28;20053;-55
2022/05/09 02:50:21;;;;;;;11.50;4.22;;;8.60;99.90;;;;;;5045628;28;20148;-57
2022/05/09 02:52:48;;;;;;;11.65;4.10;;;8.60;99.90;;;;;;5046473;28;20102;-59
2022/05/09 02:55:17;;;;;;;10.90;4.38;;;8.60;99.90;;;;;;5043351;28;20045;-59
2022/05/09 02:57:44;;;;;;;9.68;4.25;;;8.60;99.90;;;;;;5045021;28;20080;-56
2022/05/09 03:00:15;;;;;;;7.88;3.53;;;8.60;99.90;;;;;;5047509;28;20219;-56
2022/05/09 03:04:38;;;;;;;15.82;3.97;;;8.60;99.90;;;;;;5046893;28;20041;-58
2022/05/09 03:05:35;;;;;;;10.80;4.50;;;8.50;99.90;;;;;;5043407;28;20053;-55
2022/05/09 03:08:01;;;;;;;13.95;4.43;;;8.50;99.90;;;;;;5047034;28;20139;-54
2022/05/09 03:10:31;;;;;;;9.25;4.38;;;8.50;99.90;;;;;;5046738;28;20083;-56
2022/05/09 03:13:01;;;;;;;10.02;3.63;;;8.40;99.90;;;;;;5046617;28;20049;-57
2022/05/09 03:15:28;;;;;;;11.93;4.15;;;8.40;99.90;;;;;;5047086;28;20103;-56
2022/05/09 03:17:55;;;;;;;6.80;3.80;;;8.40;99.90;;;;;;5047021;28;20103;-56
2022/05/09 03:20:25;;;;;;;10.63;3.65;;;8.40;99.90;;;;;;5046779;28;20679;-59
2022/05/09 03:22:52;;;;;;;11.68;4.03;;;8.40;99.90;;;;;;5046806;28;20123;-57
2022/05/09 03:25:19;;;;;;;16.25;5.70;;;8.40;99.90;;;;;;5046420;28;20089;-56
2022/05/09 03:27:46;;;;;;;14.52;4.97;;;8.30;99.90;;;;;;5046827;28;20041;-58
2022/05/09 03:30:13;;;;;;;12.57;4.70;;;8.30;99.90;;;;;;5045849;28;20049;-59
2022/05/09 03:32:41;;;;;;;16.25;5.55;;;8.20;99.90;;;;;;5046728;28;20044;-58
2022/05/09 03:35:08;;;;;;;13.43;4.97;;;8.20;99.90;;;;;;5046127;28;20508;-56
2022/05/09 03:37:35;;;;;;;8.10;4.13;;;8.10;99.90;;;;;;5046618;28;20575;-57
2022/05/09 03:40:03;;;;;;;8.73;4.18;;;8.10;99.90;;;;;;5046999;28;20187;-57
2022/05/09 03:42:31;;;;;;;12.50;5.18;;;8.00;99.90;;;;;;5046462;28;20131;-57
2022/05/09 03:44:58;;;;;;;8.73;4.68;;;8.00;99.90;;;;;;5046554;28;20080;-57
2022/05/09 03:47:24;;;;;;;11.88;4.40;;;8.00;99.90;;;;;;5045514;28;20136;-56
2022/05/09 03:49:54;;;;;;;15.60;5.28;;;8.00;99.90;;;;;;5047070;28;20045;-57
2022/05/09 03:52:21;;;;;;;12.68;4.97;;;7.90;99.90;;;;;;5046242;28;20049;-58
2022/05/09 03:54:48;;;;;;;9.23;4.50;;;7.80;99.90;;;;;;5043589;28;20045;-57
2022/05/09 03:57:15;;;;;;;11.85;5.00;;;7.80;99.90;;;;;;5046134;28;20049;-56
2022/05/09 03:59:42;;;;;;;14.80;6.28;;;7.80;99.90;;;;;;5045562;28;20128;-57
2022/05/09 04:02:10;;;;;;;14.00;4.10;;;7.90;99.90;;;;;;5046846;28;20088;-56
2022/05/09 04:04:37;;;;;;;13.75;5.22;;;7.90;99.90;;;;;;5038858;28;20057;-57
2022/05/09 04:07:04;;;;;;;11.27;4.97;;;7.90;99.90;;;;;;5050197;28;20118;-57
2022/05/09 04:09:31;;;;;;;9.38;4.30;;;7.90;99.90;;;;;;5050452;28;20134;-58
2022/05/09 04:11:58;;;;;;;11.32;5.15;;;7.90;99.90;;;;;;5048285;28;20057;-57
2022/05/09 04:17:10;;;;;;;11.23;5.10;;;7.70;99.90;;;;;;5042604;28;20072;-57
2022/05/09 04:19:38;;;;;;;10.98;4.78;;;7.70;99.90;;;;;;5049035;28;20404;-59
2022/05/09 04:22:05;;;;;;;12.60;4.80;;;7.80;99.90;;;;;;5049883;28;20045;-58
2022/05/09 04:24:32;;;;;;;7.18;4.13;;;7.70;99.90;;;;;;5050115;28;20076;-58
2022/05/09 04:26:59;;;;;;;11.77;4.50;;;7.70;99.90;;;;;;5049744;28;20500;-58
2022/05/09 04:29:26;;;;;;;9.25;4.75;;;7.80;99.90;;;;;;5050308;28;20045;-59
2022/05/09 04:31:53;;;;;;;9.13;4.50;;;7.60;99.90;;;;;;5049854;28;20049;-59
2022/05/09 04:34:21;;;;;;;9.43;4.28;;;7.60;99.90;;;;;;5049471;28;20045;-57
2022/05/09 04:36:48;;;;;;;14.88;4.55;;;7.50;99.90;;;;;;5049892;28;20045;-58
2022/05/09 04:39:16;;;;;;;6.90;4.07;;;7.60;99.90;;;;;;5049761;28;20084;-57
2022/05/09 04:41:43;;;;;;;7.28;4.30;;;7.50;99.90;;;;;;5049760;28;20045;-59
2022/05/09 04:44:09;;;;;;;13.40;5.00;;;7.50;99.90;;;;;;5048671;28;20136;-59
2022/05/09 04:46:36;;;;;;;14.90;4.82;;;7.50;99.90;;;;;;5049635;28;20195;-56
2022/05/09 04:49:03;;;;;;;12.68;5.25;;;7.50;99.90;;;;;;5049162;28;20044;-55
2022/05/09 04:51:30;;;;;;;16.30;5.50;;;7.50;99.90;;;;;;5049539;28;20049;-57
2022/05/09 04:53:57;;;;;;;9.32;5.95;;;7.50;99.90;;;;;;5049416;28;20135;-57
2022/05/09 04:56:23;;;;;;;10.57;4.80;;;7.50;99.90;;;;;;5049870;28;20052;-58
2022/05/09 04:58:50;;;;;;;13.18;4.82;;;7.60;99.90;;;;;;5049173;28;20073;-57
2022/05/09 05:01:17;;;;;;;12.20;4.93;;;7.60;99.90;;;;;;5049830;28;20079;-60
2022/05/09 05:03:44;;;;;;;9.07;5.28;;;7.60;99.90;;;;;;5048528;28;20099;-57
2022/05/09 05:06:11;;;;;;;8.70;5.63;;;7.60;99.90;;;;;;5048481;28;20096;-56
2022/05/09 05:08:37;;;;;;;9.35;5.22;;;7.70;99.90;;;;;;5049650;28;20041;-56
2022/05/09 05:11:04;;;;;;;15.20;5.40;;;7.60;99.90;;;;;;5049005;28;20071;-57
2022/05/09 05:13:33;;;;;;;9.18;5.63;;;7.60;99.90;;;;;;5048470;28;20072;-57
2022/05/09 05:16:00;;;;;;;14.00;5.40;;;7.60;99.90;;;;;;5049228;28;20051;-57
2022/05/09 05:18:27;;;;;;;11.23;5.22;;;7.50;99.90;;;;;;5031645;28;20467;-57
2022/05/09 05:20:54;;;;;;;14.98;4.93;;;7.60;99.90;;;;;;5049085;28;20087;-60
2022/05/09 05:23:21;;;;;;;9.18;4.30;;;7.60;99.90;;;;;;5041175;28;20072;-58
2022/05/09 05:25:48;;;;;;;10.05;5.20;;;7.60;99.90;;;;;;5048854;28;20091;-58
2022/05/09 05:28:16;;;;;;;9.75;4.45;;;7.70;99.90;;;;;;5048725;28;20049;-58
2022/05/09 05:30:42;;;;;;;12.20;4.97;;;7.80;99.90;;;;;;5047299;28;20580;-58
2022/05/09 05:33:09;;;;;;;9.55;4.13;;;7.90;99.90;;;;;;5048235;28;20055;-58
2022/05/09 05:35:36;;;;;;;8.95;5.20;;;7.90;99.90;;;;;;5048034;28;20128;-58
2022/05/09 05:38:03;;;;;;;9.77;5.00;;;8.00;99.90;;;;;;5047961;28;20107;-56
2022/05/09 05:40:30;;;;;;;12.13;4.57;;;8.00;99.90;;;;;;5047716;28;20290;-59
2022/05/09 05:42:57;;;;;;;9.15;5.03;;;8.10;99.90;;;;;;5048361;28;20106;-56
2022/05/09 05:45:24;;;;;;;7.63;5.22;;;8.30;99.90;;;;;;5048735;28;20037;-57
2022/05/09 05:47:51;;;;;;;15.13;6.38;;;8.30;99.90;;;;;;5048565;28;20110;-56
2022/05/09 05:50:21;;;;;;;8.80;5.18;;;8.40;99.90;;;;;;5047186;28;20052;-57
2022/05/09 05:52:47;;;;;;;11.18;4.85;;;8.50;99.90;;;;;;5046925;28;20083;-57
2022/05/09 05:55:14;;;;;;;8.07;4.55;;;8.70;99.90;;;;;;5047864;28;20149;-56
2022/05/09 05:57:41;;;;;;;29.83;4.82;;;8.80;99.90;;;;;;5047562;28;20064;-56
2022/05/09 06:00:10;;;;;;;24.92;4.88;;;9.00;99.90;;;;;;5048081;28;20053;-56
2022/05/09 06:02:39;;;;;;;23.95;3.50;;;9.10;99.90;;;;;;5047412;28;20084;-58
2022/05/09 06:05:07;;;;;;;22.42;4.20;;;9.30;99.90;;;;;;5046762;28;20076;-57
2022/05/09 06:07:34;;;;;;;11.70;3.28;;;9.40;99.90;;;;;;5047615;28;20052;-59
2022/05/09 06:10:01;;;;;;;22.95;3.13;;;9.60;99.90;;;;;;5047477;28;20476;-57
2022/05/09 06:12:28;;;;;;;10.30;3.92;;;9.70;99.90;;;;;;5047045;28;20083;-56
2022/05/09 06:17:40;;;;;;;9.82;2.88;;;9.90;99.90;;;;;;5046439;28;20566;-58
2022/05/09 06:20:09;;;;;;;14.57;4.10;;;9.90;99.90;;;;;;5047162;28;20049;-58
2022/05/09 06:22:39;;;;;;;7.13;3.22;;;10.10;99.90;;;;;;5047008;28;20266;-55
2022/05/09 06:25:07;;;;;;;19.30;4.00;;;10.20;99.90;;;;;;5047203;28;20080;-57
2022/05/09 06:27:34;;;;;;;14.73;4.00;;;10.30;99.90;;;;;;5046016;28;20103;-58
2022/05/09 06:30:01;;;;;;;21.08;4.85;;;10.30;99.90;;;;;;5046752;28;20485;-58
2022/05/09 06:32:28;;;;;;;12.98;3.92;;;10.40;99.90;;;;;;5046590;28;20056;-57
2022/05/09 06:34:55;;;;;;;11.38;4.15;;;10.50;99.90;;;;;;5046538;28;20221;-59
2022/05/09 06:37:25;;;;;;;6.18;3.30;;;10.60;99.90;;;;;;5045983;28;20504;-59
2022/05/09 06:39:52;;;;;;;10.98;3.72;;;10.70;99.90;;;;;;5046355;28;20045;-62
2022/05/09 06:42:19;;;;;;;8.38;3.42;;;10.80;99.90;;;;;;5045088;28;20045;-57
2022/05/09 06:44:46;;;;;;;6.32;2.45;;;10.80;99.90;;;;;;5045239;28;20591;-58
2022/05/09 06:47:14;;;;;;;16.05;3.33;;;10.90;99.90;;;;;;5046270;28;20099;-58
2022/05/09 06:49:41;;;;;;;12.23;3.40;;;11.00;99.90;;;;;;5029017;28;20049;-58
2022/05/09 06:52:07;;;;;;;11.90;3.38;;;11.00;99.90;;;;;;5046311;28;20053;-59
2022/05/09 06:54:34;;;;;;;16.10;4.03;;;11.10;99.90;;;;;;5046183;28;20049;-57
2022/05/09 06:57:01;;;;;;;8.20;3.53;;;11.20;99.90;;;;;;5045882;28;20076;-57
2022/05/09 06:59:30;;;;;;;9.95;3.17;;;11.30;99.90;;;;;;5041180;28;20048;-58
2022/05/09 07:01:57;;;;;;;7.85;2.90;;;11.40;99.90;;;;;;5047032;28;20060;-57
2022/05/09 07:04:24;;;;;;;9.50;2.55;;;11.70;99.90;;;;;;5045568;28;20508;-58
2022/05/09 07:06:51;;;;;;;7.95;2.60;;;11.60;99.90;;;;;;5045258;28;20081;-56
2022/05/09 07:09:18;;;;;;;9.95;2.92;;;11.70;99.90;;;;;;5046157;28;20064;-56
2022/05/09 07:11:45;;;;;;;12.20;2.95;;;11.80;99.90;;;;;;5046233;28;20122;-58
2022/05/09 07:14:12;;;;;;;9.30;2.97;;;11.90;99.90;;;;;;5045458;28;20057;-57
2022/05/09 07:16:38;;;;;;;13.73;3.83;;;12.00;99.90;;;;;;5044730;28;20447;-54
2022/05/09 07:19:06;;;;;;;11.98;2.70;;;12.10;99.90;;;;;;5046002;28;20052;-55
2022/05/09 07:21:33;;;;;;;10.52;3.80;;;12.20;99.90;;;;;;5045138;28;20052;-57
2022/05/09 07:24:00;;;;;;;11.00;3.15;;;12.20;99.90;;;;;;5045950;28;20053;-55
2022/05/09 07:26:27;;;;;;;8.70;3.10;;;12.30;99.90;;;;;;5046530;28;20045;-58
2022/05/09 07:28:54;;;;;;;14.45;2.92;;;12.40;99.90;;;;;;5046278;28;20140;-57
2022/05/09 07:31:21;;;;;;;9.20;2.83;;;12.50;99.90;;;;;;5046083;28;20114;-57
2022/05/09 07:33:48;;;;;;;9.27;2.25;;;12.60;99.90;;;;;;5037300;28;20048;-58
2022/05/09 07:36:14;;;;;;;11.10;3.60;;;12.70;99.90;;;;;;5044760;28;20503;-58
2022/05/09 07:38:42;;;;;;;9.40;3.08;;;12.70;99.90;;;;;;5048731;28;20049;-58
2022/05/09 07:41:09;;;;;;;6.22;1.83;;;12.80;99.90;;;;;;5050321;28;20115;-56
2022/05/09 07:43:36;;;;;;;7.75;2.38;;;12.90;99.90;;;;;;5050058;28;20051;-57
2022/05/09 07:46:08;;;;;;;8.10;1.80;;;12.90;99.90;;;;;;5049364;28;20044;-58
2022/05/09 07:48:55;;;;;;;4.75;1.60;;;13.10;99.90;;;;;;5049012;28;20048;-58
2022/05/09 07:51:21;;;;;;;6.13;1.73;;;13.20;99.90;;;;;;5050632;28;20076;-58
2022/05/09 07:53:48;;;;;;;6.13;2.20;;;13.30;99.90;;;;;;5049707;28;20081;-58
2022/05/09 07:56:15;;;;;;;4.65;1.48;;;13.40;99.90;;;;;;5050178;28;20608;-57
2022/05/09 07:58:42;;;;;;;2.45;1.17;;;13.60;99.90;;;;;;5049831;28;20045;-53
2022/05/09 08:01:08;;;;;;;10.25;2.53;;;13.70;99.90;;;;;;5048610;28;20048;-57
2022/05/09 08:03:37;;;;;;;5.85;1.35;;;13.80;99.90;;;;;;5050231;28;20099;-58
2022/05/09 08:06:04;;;;;;;4.68;1.38;;;14.00;99.70;;;;;;5049714;28;20079;-57
2022/05/09 08:08:32;;;;;;;7.78;1.25;;;14.10;99.70;;;;;;5050687;28;20048;-58
2022/05/09 08:11:00;;;;;;;4.82;1.05;;;14.20;99.70;;;;;;5049737;28;20053;-57
2022/05/09 08:13:29;;;;;;;25.05;2.83;;;14.30;99.40;;;;;;5049491;28;20056;-65
2022/05/09 08:15:56;;;;;;;5.43;1.55;;;14.50;98.90;;;;;;5031778;28;20147;-58
2022/05/09 08:18:25;;;;;;;5.18;1.88;;;14.50;98.90;;;;;;5049500;28;20132;-59
2022/05/09 08:20:53;;;;;;;9.48;1.67;;;14.70;99.00;;;;;;5049700;28;20119;-58
2022/05/09 08:23:22;;;;;;;8.05;1.77;;;14.80;98.90;;;;;;5049712;28;20131;-60
2022/05/09 08:25:50;;;;;;;9.48;1.90;;;14.90;98.70;;;;;;5049550;28;20120;-59
2022/05/09 08:28:17;;;;;;;9.60;2.08;;;15.00;98.80;;;;;;5049679;28;20138;-59
2022/05/09 08:30:44;;;;;;;13.80;2.35;;;15.00;98.90;;;;;;5049356;28;20052;-59
2022/05/09 08:33:17;;;;;;;13.13;2.08;;;15.10;98.80;;;;;;5049493;28;20045;-59
2022/05/09 08:35:48;;;;;;;10.32;1.83;;;15.30;98.10;;;;;;5048837;28;20056;-60
2022/05/09 08:38:15;;;;;;;11.20;2.15;;;15.40;98.40;;;;;;5049923;28;20492;-59
2022/05/09 08:41:05;;;;;;;12.05;2.88;;;15.50;98.20;;;;;;5047895;28;20094;-56
2022/05/09 08:43:48;;;;;;;9.35;2.30;;;15.70;96.60;;;;;;5046500;28;20474;-57
2022/05/09 08:46:29;;;;;;;5.75;1.90;;;15.80;97.00;;;;;;5047583;28;20129;-57
2022/05/09 08:49:06;;;;;;;11.13;3.15;;;16.00;97.00;;;;;;5046729;28;20045;-58
2022/05/09 08:51:58;;;;;;;8.73;1.88;;;16.00;97.00;;;;;;5047046;28;20045;-58
2022/05/09 08:54:25;;;;;;;8.50;1.73;;;16.20;96.50;;;;;;5047914;28;20048;-58
2022/05/09 08:57:00;;;;;;;13.75;2.50;;;16.30;97.50;;;;;;5047443;28;20072;-58
2022/05/09 08:59:28;;;;;;;9.45;2.47;;;16.30;95.60;;;;;;5047774;28;20084;-59
2022/05/09 09:02:23;;;;;;;7.28;2.58;;;16.40;96.90;;;;;;5046736;28;20083;-55
2022/05/09 09:04:51;;;;;;;;;;;16.50;97.00;;;;;;5036452;28;20551;-58
2022/05/09 09:07:43;;;;;;;8.50;3.63;;;16.50;95.90;;;;;;5071851;28;20564;-59
2022/05/09 09:10:24;;;;;;;12.25;2.33;;;16.60;97.60;;;;;;5045431;28;20084;-58
2022/05/09 09:13:06;;;;;;;11.60;2.75;;;16.70;96.80;;;;;;5045690;28;20076;-59
2022/05/09 09:15:37;;;;;;;7.55;2.38;;;16.90;96.20;;;;;;5044686;28;20080;-61
2022/05/09 09:18:19;;;;;;;11.43;2.90;;;17.00;96.70;;;;;;5048601;28;20563;-56
2022/05/09 09:20:54;;;;;;;6.80;2.30;;;17.20;96.80;;;;;;5048337;28;20053;-58
2022/05/09 09:23:57;;;;;;;14.80;3.65;;;17.20;96.00;;;;;;5047419;28;20041;-57
2022/05/09 09:26:42;;;;;;;9.23;2.80;;;17.30;95.70;;;;;;5047822;28;20085;-57
2022/05/09 09:29:30;;;;;;;5.18;1.95;;;17.40;96.50;;;;;;5048689;28;20128;-58
2022/05/09 09:32:11;;;;;;;7.97;3.28;;;17.50;95.80;;;;;;5047146;28;20118;-58
2022/05/09 09:35:03;;;;;;;12.80;2.85;;;17.70;96.10;;;;;;5047360;28;20051;-58
2022/05/09 09:37:33;;;;;;;10.07;2.83;;;17.80;95.80;;;;;;5046942;28;20049;-58
2022/05/09 09:40:00;;;;;;;12.30;3.10;;;17.90;96.40;;;;;;5046388;28;20515;-59
2022/05/09 09:42:27;;;;;;;5.78;2.20;;;18.10;96.60;;;;;;5047104;28;20604;-58
2022/05/09 09:44:56;;;;;;;8.63;2.83;;;18.20;96.80;;;;;;5048155;28;20071;-57
2022/05/09 09:47:24;;;;;;;14.05;3.42;;;18.30;96.30;;;;;;5048062;28;20049;-61
2022/05/09 09:50:20;;;;;;;8.65;2.85;;;18.40;96.30;;;;;;5046294;28;20057;-59
2022/05/09 09:52:52;;;;;;;14.18;2.83;;;18.50;96.00;;;;;;5048069;28;20102;-58
2022/05/09 09:55:24;;;;;;;8.00;3.40;;;18.80;95.70;;;;;;5045130;28;20051;-58
2022/05/09 09:57:50;;;;;;;17.30;3.35;;;18.90;95.90;;;;;;5046648;28;20033;-59
2022/05/09 10:00:20;;;;;;;11.07;3.58;;;19.20;95.60;;;;;;5045118;28;20509;-58
2022/05/09 10:02:48;;;;;;;11.40;2.83;;;19.30;95.50;;;;;;5046439;28;20072;-60
2022/05/09 10:05:16;;;;;;;9.15;4.05;;;19.50;95.70;;;;;;5043620;28;20049;-59
2022/05/09 10:07:47;;;;;;;12.98;3.10;;;19.70;95.50;;;;;;5043223;28;20049;-63
2022/05/09 10:10:18;;;;;;;11.45;3.17;;;19.80;95.10;;;;;;5046468;28;20140;-58
2022/05/09 10:12:48;;;;;;;17.13;4.13;;;20.00;94.90;;;;;;5047428;28;20119;-59
2022/05/09 10:15:34;;;;;;;9.80;3.85;;;20.10;95.10;;;;;;5048002;28;20049;-58
2022/05/09 10:18:30;;;;;;;7.20;3.15;;;20.30;93.80;;;;;;5040223;28;20045;-58
2022/05/09 10:26:58;;;;;;;7.28;3.55;;;20.80;94.00;;;;;;5045408;28;20155;-59
2022/05/09 10:29:31;;;;;;;10.32;3.92;;;20.90;93.40;;;;;;4694328;28;10000618;-59
2022/05/09 10:32:00;;;;;;;10.43;3.63;;;20.90;93.30;;;;;;5027420;28;20091;-59
2022/05/09 10:34:39;;;;;;;5.57;2.97;;;21.00;92.20;;;;;;5044313;28;20094;-59
2022/05/09 10:37:13;;;;;;;11.65;4.18;;;21.10;92.60;;;;;;5042025;28;20131;-58
2022/05/09 10:39:43;;;;;;;6.47;3.40;;;21.20;92.30;;;;;;5042314;28;20652;-59
2022/05/09 10:42:21;;;;;;;6.22;3.03;;;21.30;92.90;;;;;;5042333;28;20451;-59
2022/05/09 10:44:53;;;;;;;8.02;3.25;;;21.10;91.60;;;;;;5042115;28;20806;-59
2022/05/09 10:47:41;;;;;;;8.60;3.50;;;21.10;91.80;;;;;;5044223;28;20087;-59
2022/05/09 10:50:28;;;;;;;12.20;3.47;;;20.90;91.90;;;;;;5042586;28;20136;-60
2022/05/09 10:53:17;;;;;;;8.75;3.13;;;20.80;92.90;;;;;;5042771;28;20144;-59
2022/05/09 10:55:53;;;;;;;8.45;2.88;;;20.70;92.40;;;;;;5038972;28;20063;-60
2022/05/09 10:58:24;;;;;;;5.50;3.13;;;20.80;93.40;;;;;;5043974;28;20088;-59
2022/05/09 11:00:56;;;;;;;6.45;3.25;;;20.90;93.10;;;;;;5043898;28;20091;-59
2022/05/09 11:03:24;;;;;;;8.77;3.78;;;20.90;93.00;;;;;;5045634;28;20068;-59
2022/05/09 11:06:00;;;;;;;15.07;3.90;;;20.80;92.60;;;;;;5046617;28;20600;-59
2022/05/09 11:08:35;;;;;;;6.47;3.17;;;20.80;92.50;;;;;;5047173;28;20080;-59
2022/05/09 11:11:22;;;;;;;10.82;4.10;;;20.80;93.10;;;;;;5045259;28;20048;-59
2022/05/09 11:14:11;;;;;;;8.43;3.45;;;21.00;92.80;;;;;;5041199;28;20563;-59
2022/05/09 11:17:00;;;;;;;9.50;3.63;;;21.00;92.20;;;;;;5043169;28;20087;-59
2022/05/09 11:19:39;;;;;;;11.50;4.22;;;21.00;92.40;;;;;;5046677;28;20136;-59
2022/05/09 11:22:31;;;;;;;11.88;4.00;;;20.90;93.20;;;;;;5039129;28;20129;-60
2022/05/09 11:25:26;;;;;;;11.18;4.30;;;20.90;92.80;;;;;;5042317;28;20057;-60
2022/05/09 11:28:11;;;;;;;10.55;3.90;;;20.90;92.90;;;;;;5033492;28;20140;-59
2022/05/09 11:30:45;;;;;;;8.00;3.65;;;20.90;92.60;;;;;;5040531;28;20139;-59
2022/05/09 11:33:46;;;;;;;12.60;4.03;;;21.00;93.40;;;;;;5042352;28;20053;-59
2022/05/09 11:36:22;;;;;;;11.48;3.25;;;21.10;92.10;;;;;;5035884;28;20087;-59
2022/05/09 11:38:54;;;;;;;8.15;4.15;;;21.20;92.90;;;;;;5043957;28;20076;-59
2022/05/09 11:41:29;;;;;;;8.68;4.85;;;21.30;92.90;;;;;;5041458;28;20041;-58
2022/05/09 11:44:10;;;;;;;10.75;3.80;;;21.20;91.30;;;;;;5042819;28;20041;-59
2022/05/09 11:46:55;;;;;;;9.82;4.53;;;21.20;91.50;;;;;;5045122;28;20107;-58
2022/05/09 11:49:34;;;;;;;7.75;3.72;;;21.30;91.50;;;;;;5045186;28;20076;-59
2022/05/09 11:52:07;;;;;;;8.73;3.72;;;21.30;92.50;;;;;;5044276;28;20164;-59
2022/05/09 11:54:41;;;;;;;11.68;3.95;;;21.40;92.50;;;;;;5038043;28;20076;-59
2022/05/09 11:57:29;;;;;;;6.32;4.13;;;21.40;92.90;;;;;;5044871;28;20124;-59
2022/05/09 11:59:57;;;;;;;8.60;4.30;;;21.50;91.10;;;;;;5039997;28;20076;-59
2022/05/09 12:02:49;;;;;;;16.35;5.55;;;21.40;92.20;;;;;;5043512;28;20079;-58
2022/05/09 12:05:29;;;;;;;8.43;4.30;;;21.40;90.40;;;;;;5044725;28;20199;-60
2022/05/09 12:08:08;;;;;;;11.35;3.95;;;21.30;91.50;;;;;;5045000;28;20088;-58
2022/05/09 12:10:37;;;;;;;11.13;4.50;;;21.20;91.70;;;;;;5040832;28;20069;-59
2022/05/09 12:13:27;;;;;;;7.03;4.10;;;21.30;92.50;;;;;;5045063;28;20539;-58
2022/05/09 12:15:58;;;;;;;10.02;4.35;;;21.40;91.60;;;;;;5038634;28;20045;-59
2022/05/09 12:18:45;;;;;;;7.50;3.97;;;21.60;92.30;;;;;;5044798;28;20053;-59
2022/05/09 12:21:17;;;;;;;8.82;4.43;;;21.70;91.60;;;;;;5043453;28;20049;-59
2022/05/09 12:23:44;;;;;;;11.07;4.93;;;21.60;91.60;;;;;;5040366;28;20068;-59
2022/05/09 12:26:30;;;;;;;7.32;4.88;;;21.70;91.90;;;;;;5050263;28;20076;-59
2022/05/09 12:29:30;;;;;;;9.13;3.72;;;21.70;90.50;;;;;;5042895;28;20459;-58
2022/05/09 12:32:01;;;;;;;7.10;4.57;;;21.70;91.60;;;;;;5039942;28;20099;-59
2022/05/09 12:34:39;;;;;;;10.80;4.07;;;21.80;91.50;;;;;;5048481;28;20053;-59
2022/05/09 12:37:06;;;;;;;10.02;4.55;;;21.80;91.10;;;;;;5049630;28;20408;-60
2022/05/09 12:39:36;;;;;;;7.90;4.03;;;21.90;92.30;;;;;;5041903;28;20049;-59
2022/05/09 12:42:11;;;;;;;8.80;3.92;;;21.80;91.80;;;;;;5048393;28;20496;-59
2022/05/09 12:44:45;;;;;;;12.18;5.13;;;22.00;90.80;;;;;;5046638;28;20060;-59
2022/05/09 12:47:20;;;;;;;8.82;3.75;;;22.00;90.30;;;;;;5031512;28;20045;-59
2022/05/09 12:49:59;;;;;;;7.22;4.85;;;22.30;91.40;;;;;;5046873;28;20155;-59
2022/05/09 12:52:29;;;;;;;7.60;4.88;;;22.30;89.80;;;;;;5047368;28;20492;-60
2022/05/09 12:57:43;;;;;;;8.30;4.75;;;22.10;90.60;;;;;;5047544;28;20049;-59
2022/05/09 13:00:14;;;;;;;5.75;3.58;;;21.80;91.00;;;;;;5049128;28;20053;-59
2022/05/09 13:03:05;;;;;;;9.85;4.55;;;21.70;90.70;;;;;;5049558;28;20418;-59
2022/05/09 13:05:40;;;;;;;9.65;4.40;;;21.80;89.80;;;;;;5045979;28;20140;-60
2022/05/09 13:08:08;;;;;;;13.13;5.00;;;21.70;90.20;;;;;;5049466;28;20128;-58
2022/05/09 13:10:56;;;;;;;11.38;4.43;;;21.80;90.60;;;;;;5048550;28;20575;-60
2022/05/09 13:13:31;;;;;;;10.82;4.13;;;21.80;89.90;;;;;;5047668;28;20041;-60
2022/05/09 13:15:57;;;;;;;10.90;3.78;;;21.80;89.00;;;;;;5048742;28;20061;-59
2022/05/09 13:18:26;;;;;;;5.93;3.85;;;21.70;90.70;;;;;;5048156;28;20075;-59
2022/05/09 13:20:55;;;;;;;8.60;4.18;;;21.70;90.50;;;;;;5047177;28;20053;-60
2022/05/09 13:23:31;;;;;;;7.97;3.60;;;21.80;91.10;;;;;;5047956;28;20068;-60
2022/05/09 13:26:00;;;;;;;8.13;4.05;;;21.70;90.30;;;;;;5046987;28;20045;-60